sensor_id;sensor_type;location;lat;lon;timestamp;P1;durP1;ratioP1;P2;durP2;ratioP2
68475;SDS011;55464;48.266;14.188;2023-07-30T00:01:24;1.83;;;1.38;;
68475;SDS011;55464;48.266;14.188;2023-07-30T00:03:49;1.90;;;1.80;;
68475;SDS011;55464;48.266;14.188;2023-07-30T00:06:15;4.03;;;1.50;;
68475;SDS011;55464;48.266;14.188;2023-07-30T00:08:40;1.70;;;1.40;;
68475;SDS011;55464;48.266;14.188;2023-07-30T00:11:06;2.20;;;1.60;;
68475;SDS011;55464;48.266;14.188;2023-07-30T00:13:31;2.05;;;1.60;;
68475;SDS011;55464;48.266;14.188;2023-07-30T00:15:56;2.85;;;1.38;;
68475;SDS011;55464;48.266;14.188;2023-07-30T00:18:22;2.15;;;1.65;;
68475;SDS011;55464;48.266;14.188;2023-07-30T00:20:47;1.80;;;1.70;;
68475;SDS011;55464;48.266;14.188;2023-07-30T00:23:13;1.95;;;1.70;;
68475;SDS011;55464;48.266;14.188;2023-07-30T00:25:38;1.88;;;1.55;;
68475;SDS011;55464;48.266;14.188;2023-07-30T00:28:03;1.75;;;1.60;;
68475;SDS011;55464;48.266;14.188;2023-07-30T00:30:29;2.25;;;1.55;;
68475;SDS011;55464;48.266;14.188;2023-07-30T00:32:54;1.95;;;1.75;;
68475;SDS011;55464;48.266;14.188;2023-07-30T00:35:20;1.48;;;1.38;;
68475;SDS011;55464;48.266;14.188;2023-07-30T00:37:45;2.45;;;1.77;;
68475;SDS011;55464;48.266;14.188;2023-07-30T00:40:11;2.40;;;1.55;;
68475;SDS011;55464;48.266;14.188;2023-07-30T00:42:37;1.45;;;1.35;;
68475;SDS011;55464;48.266;14.188;2023-07-30T00:45:02;2.55;;;1.50;;
68475;SDS011;55464;48.266;14.188;2023-07-30T00:47:29;2.30;;;1.80;;
68475;SDS011;55464;48.266;14.188;2023-07-30T00:49:55;2.95;;;1.85;;
68475;SDS011;55464;48.266;14.188;2023-07-30T00:52:21;3.75;;;2.42;;
68475;SDS011;55464;48.266;14.188;2023-07-30T00:54:48;1.65;;;1.55;;
68475;SDS011;55464;48.266;14.188;2023-07-30T00:57:14;2.30;;;2.00;;
68475;SDS011;55464;48.266;14.188;2023-07-30T00:59:41;1.70;;;1.60;;
68475;SDS011;55464;48.266;14.188;2023-07-30T01:02:08;2.17;;;1.52;;
68475;SDS011;55464;48.266;14.188;2023-07-30T01:04:33;4.05;;;1.65;;
68475;SDS011;55464;48.266;14.188;2023-07-30T01:06:59;2.40;;;1.73;;
68475;SDS011;55464;48.266;14.188;2023-07-30T01:09:24;1.85;;;1.63;;
68475;SDS011;55464;48.266;14.188;2023-07-30T01:11:51;2.70;;;1.85;;
68475;SDS011;55464;48.266;14.188;2023-07-30T01:14:18;2.17;;;1.50;;
68475;SDS011;55464;48.266;14.188;2023-07-30T01:16:45;1.75;;;1.30;;
68475;SDS011;55464;48.266;14.188;2023-07-30T01:19:11;2.55;;;1.77;;
68475;SDS011;55464;48.266;14.188;2023-07-30T01:21:36;2.08;;;1.70;;
68475;SDS011;55464;48.266;14.188;2023-07-30T01:24:02;1.83;;;1.60;;
68475;SDS011;55464;48.266;14.188;2023-07-30T01:26:37;4.72;;;1.80;;
68475;SDS011;55464;48.266;14.188;2023-07-30T01:29:11;1.88;;;1.65;;
68475;SDS011;55464;48.266;14.188;2023-07-30T01:31:41;2.03;;;1.83;;
68475;SDS011;55464;48.266;14.188;2023-07-30T01:34:09;2.17;;;1.70;;
68475;SDS011;55464;48.266;14.188;2023-07-30T01:36:36;3.45;;;1.88;;
68475;SDS011;55464;48.266;14.188;2023-07-30T01:39:03;1.58;;;1.40;;
68475;SDS011;55464;48.266;14.188;2023-07-30T01:41:30;2.25;;;1.80;;
68475;SDS011;55464;48.266;14.188;2023-07-30T01:43:56;2.00;;;1.77;;
68475;SDS011;55464;48.266;14.188;2023-07-30T01:46:21;1.55;;;1.45;;
68475;SDS011;55464;48.266;14.188;2023-07-30T01:48:47;1.60;;;1.50;;
68475;SDS011;55464;48.266;14.188;2023-07-30T01:51:12;1.85;;;1.70;;
68475;SDS011;55464;48.266;14.188;2023-07-30T01:53:38;2.90;;;1.70;;
68475;SDS011;55464;48.266;14.188;2023-07-30T01:56:03;3.70;;;1.70;;
68475;SDS011;55464;48.266;14.188;2023-07-30T01:58:28;2.65;;;1.88;;
68475;SDS011;55464;48.266;14.188;2023-07-30T02:00:54;1.73;;;1.38;;
68475;SDS011;55464;48.266;14.188;2023-07-30T02:03:20;3.13;;;1.77;;
68475;SDS011;55464;48.266;14.188;2023-07-30T02:05:45;2.65;;;1.65;;
68475;SDS011;55464;48.266;14.188;2023-07-30T02:08:11;2.00;;;1.52;;
68475;SDS011;55464;48.266;14.188;2023-07-30T02:10:40;2.90;;;1.90;;
68475;SDS011;55464;48.266;14.188;2023-07-30T02:13:06;1.98;;;1.77;;
68475;SDS011;55464;48.266;14.188;2023-07-30T02:15:31;2.22;;;2.00;;
68475;SDS011;55464;48.266;14.188;2023-07-30T02:17:57;1.80;;;1.70;;
68475;SDS011;55464;48.266;14.188;2023-07-30T02:20:22;2.38;;;1.98;;
68475;SDS011;55464;48.266;14.188;2023-07-30T02:22:48;2.42;;;2.22;;
68475;SDS011;55464;48.266;14.188;2023-07-30T02:25:13;2.42;;;1.90;;
68475;SDS011;55464;48.266;14.188;2023-07-30T02:27:38;2.20;;;2.00;;
68475;SDS011;55464;48.266;14.188;2023-07-30T02:30:04;2.20;;;1.80;;
68475;SDS011;55464;48.266;14.188;2023-07-30T02:32:30;3.53;;;1.80;;
68475;SDS011;55464;48.266;14.188;2023-07-30T02:34:55;1.98;;;1.88;;
68475;SDS011;55464;48.266;14.188;2023-07-30T02:37:21;3.72;;;1.85;;
68475;SDS011;55464;48.266;14.188;2023-07-30T02:39:46;3.33;;;1.98;;
68475;SDS011;55464;48.266;14.188;2023-07-30T02:42:11;4.68;;;2.13;;
68475;SDS011;55464;48.266;14.188;2023-07-30T02:44:37;2.00;;;1.80;;
68475;SDS011;55464;48.266;14.188;2023-07-30T02:47:02;3.20;;;1.83;;
68475;SDS011;55464;48.266;14.188;2023-07-30T02:49:28;2.30;;;1.60;;
68475;SDS011;55464;48.266;14.188;2023-07-30T02:51:53;1.90;;;1.75;;
68475;SDS011;55464;48.266;14.188;2023-07-30T02:54:19;2.17;;;1.90;;
68475;SDS011;55464;48.266;14.188;2023-07-30T02:56:47;3.03;;;1.63;;
68475;SDS011;55464;48.266;14.188;2023-07-30T02:59:12;2.28;;;1.90;;
68475;SDS011;55464;48.266;14.188;2023-07-30T03:01:38;2.58;;;1.70;;
68475;SDS011;55464;48.266;14.188;2023-07-30T03:04:03;1.83;;;1.73;;
68475;SDS011;55464;48.266;14.188;2023-07-30T03:06:29;2.13;;;1.80;;
68475;SDS011;55464;48.266;14.188;2023-07-30T03:08:55;3.72;;;1.55;;
68475;SDS011;55464;48.266;14.188;2023-07-30T03:11:21;4.38;;;1.90;;
68475;SDS011;55464;48.266;14.188;2023-07-30T03:13:47;2.50;;;1.83;;
68475;SDS011;55464;48.266;14.188;2023-07-30T03:16:12;6.45;;;2.17;;
68475;SDS011;55464;48.266;14.188;2023-07-30T03:18:38;3.80;;;1.73;;
68475;SDS011;55464;48.266;14.188;2023-07-30T03:21:03;2.90;;;1.80;;
68475;SDS011;55464;48.266;14.188;2023-07-30T03:23:28;2.10;;;1.60;;
68475;SDS011;55464;48.266;14.188;2023-07-30T03:25:54;3.35;;;1.77;;
68475;SDS011;55464;48.266;14.188;2023-07-30T03:28:19;2.80;;;1.73;;
68475;SDS011;55464;48.266;14.188;2023-07-30T03:30:45;2.38;;;1.83;;
68475;SDS011;55464;48.266;14.188;2023-07-30T03:33:10;2.92;;;2.10;;
68475;SDS011;55464;48.266;14.188;2023-07-30T03:35:36;1.67;;;1.35;;
68475;SDS011;55464;48.266;14.188;2023-07-30T03:38:01;2.15;;;1.40;;
68475;SDS011;55464;48.266;14.188;2023-07-30T03:40:26;3.00;;;1.67;;
68475;SDS011;55464;48.266;14.188;2023-07-30T03:42:52;1.95;;;1.55;;
68475;SDS011;55464;48.266;14.188;2023-07-30T03:45:18;2.75;;;1.65;;
68475;SDS011;55464;48.266;14.188;2023-07-30T03:47:44;1.67;;;1.58;;
68475;SDS011;55464;48.266;14.188;2023-07-30T03:50:09;1.50;;;1.40;;
68475;SDS011;55464;48.266;14.188;2023-07-30T03:52:34;2.63;;;1.50;;
68475;SDS011;55464;48.266;14.188;2023-07-30T03:55:00;1.63;;;1.50;;
68475;SDS011;55464;48.266;14.188;2023-07-30T03:57:25;1.40;;;1.30;;
68475;SDS011;55464;48.266;14.188;2023-07-30T03:59:51;2.42;;;1.45;;
68475;SDS011;55464;48.266;14.188;2023-07-30T04:02:16;2.55;;;1.70;;
68475;SDS011;55464;48.266;14.188;2023-07-30T04:04:42;1.52;;;1.42;;
68475;SDS011;55464;48.266;14.188;2023-07-30T04:07:09;1.83;;;1.65;;
68475;SDS011;55464;48.266;14.188;2023-07-30T04:09:35;1.88;;;1.60;;
68475;SDS011;55464;48.266;14.188;2023-07-30T04:12:01;3.35;;;1.50;;
68475;SDS011;55464;48.266;14.188;2023-07-30T04:14:26;2.85;;;1.50;;
68475;SDS011;55464;48.266;14.188;2023-07-30T04:16:52;1.83;;;1.70;;
68475;SDS011;55464;48.266;14.188;2023-07-30T04:19:17;3.00;;;2.08;;
68475;SDS011;55464;48.266;14.188;2023-07-30T04:21:42;1.77;;;1.42;;
68475;SDS011;55464;48.266;14.188;2023-07-30T04:24:08;3.40;;;1.67;;
68475;SDS011;55464;48.266;14.188;2023-07-30T04:26:33;2.63;;;1.77;;
68475;SDS011;55464;48.266;14.188;2023-07-30T04:28:59;6.93;;;1.65;;
68475;SDS011;55464;48.266;14.188;2023-07-30T04:31:24;3.60;;;1.80;;
68475;SDS011;55464;48.266;14.188;2023-07-30T04:33:52;2.03;;;1.52;;
68475;SDS011;55464;48.266;14.188;2023-07-30T04:36:17;3.20;;;1.60;;
68475;SDS011;55464;48.266;14.188;2023-07-30T04:38:43;1.85;;;1.65;;
68475;SDS011;55464;48.266;14.188;2023-07-30T04:41:08;2.92;;;1.65;;
68475;SDS011;55464;48.266;14.188;2023-07-30T04:43:34;3.50;;;1.70;;
68475;SDS011;55464;48.266;14.188;2023-07-30T04:45:59;2.25;;;1.75;;
68475;SDS011;55464;48.266;14.188;2023-07-30T04:48:25;1.58;;;1.48;;
68475;SDS011;55464;48.266;14.188;2023-07-30T04:50:50;3.95;;;2.03;;
68475;SDS011;55464;48.266;14.188;2023-07-30T04:53:15;2.20;;;1.65;;
68475;SDS011;55464;48.266;14.188;2023-07-30T04:55:43;4.38;;;1.92;;
68475;SDS011;55464;48.266;14.188;2023-07-30T04:58:08;1.98;;;1.60;;
68475;SDS011;55464;48.266;14.188;2023-07-30T05:00:34;2.38;;;1.90;;
68475;SDS011;55464;48.266;14.188;2023-07-30T05:02:59;2.03;;;1.80;;
68475;SDS011;55464;48.266;14.188;2023-07-30T05:05:24;2.33;;;1.67;;
68475;SDS011;55464;48.266;14.188;2023-07-30T05:07:50;1.92;;;1.70;;
68475;SDS011;55464;48.266;14.188;2023-07-30T05:10:15;2.50;;;1.70;;
68475;SDS011;55464;48.266;14.188;2023-07-30T05:12:41;2.55;;;1.90;;
68475;SDS011;55464;48.266;14.188;2023-07-30T05:15:06;3.03;;;1.73;;
68475;SDS011;55464;48.266;14.188;2023-07-30T05:17:32;3.20;;;1.98;;
68475;SDS011;55464;48.266;14.188;2023-07-30T05:19:58;3.60;;;1.70;;
68475;SDS011;55464;48.266;14.188;2023-07-30T05:22:23;2.40;;;1.58;;
68475;SDS011;55464;48.266;14.188;2023-07-30T05:24:50;3.53;;;2.05;;
68475;SDS011;55464;48.266;14.188;2023-07-30T05:27:15;3.47;;;2.17;;
68475;SDS011;55464;48.266;14.188;2023-07-30T05:29:41;2.13;;;1.90;;
68475;SDS011;55464;48.266;14.188;2023-07-30T05:32:07;2.13;;;1.70;;
68475;SDS011;55464;48.266;14.188;2023-07-30T05:34:32;4.07;;;2.08;;
68475;SDS011;55464;48.266;14.188;2023-07-30T05:36:58;3.42;;;1.95;;
68475;SDS011;55464;48.266;14.188;2023-07-30T05:39:24;4.43;;;2.10;;
68475;SDS011;55464;48.266;14.188;2023-07-30T05:41:49;2.05;;;1.85;;
68475;SDS011;55464;48.266;14.188;2023-07-30T05:44:14;3.65;;;1.85;;
68475;SDS011;55464;48.266;14.188;2023-07-30T05:46:40;4.32;;;1.90;;
68475;SDS011;55464;48.266;14.188;2023-07-30T05:49:05;4.43;;;2.00;;
68475;SDS011;55464;48.266;14.188;2023-07-30T05:51:30;1.80;;;1.70;;
68475;SDS011;55464;48.266;14.188;2023-07-30T05:53:56;2.35;;;2.15;;
68475;SDS011;55464;48.266;14.188;2023-07-30T05:56:21;2.30;;;1.70;;
68475;SDS011;55464;48.266;14.188;2023-07-30T05:58:47;4.63;;;2.47;;
68475;SDS011;55464;48.266;14.188;2023-07-30T06:01:12;2.45;;;2.03;;
68475;SDS011;55464;48.266;14.188;2023-07-30T06:03:37;2.20;;;2.00;;
68475;SDS011;55464;48.266;14.188;2023-07-30T06:06:03;2.70;;;2.40;;
68475;SDS011;55464;48.266;14.188;2023-07-30T06:08:28;2.08;;;1.98;;
68475;SDS011;55464;48.266;14.188;2023-07-30T06:10:54;2.22;;;1.70;;
68475;SDS011;55464;48.266;14.188;2023-07-30T06:13:20;1.60;;;1.40;;
68475;SDS011;55464;48.266;14.188;2023-07-30T06:15:46;2.55;;;1.52;;
68475;SDS011;55464;48.266;14.188;2023-07-30T06:18:11;1.52;;;1.40;;
68475;SDS011;55464;48.266;14.188;2023-07-30T06:20:37;5.30;;;1.55;;
68475;SDS011;55464;48.266;14.188;2023-07-30T06:23:02;1.60;;;1.50;;
68475;SDS011;55464;48.266;14.188;2023-07-30T06:25:28;2.55;;;1.60;;
68475;SDS011;55464;48.266;14.188;2023-07-30T06:27:55;2.42;;;1.50;;
68475;SDS011;55464;48.266;14.188;2023-07-30T06:30:23;3.35;;;1.67;;
68475;SDS011;55464;48.266;14.188;2023-07-30T06:32:49;1.60;;;1.50;;
68475;SDS011;55464;48.266;14.188;2023-07-30T06:35:14;2.53;;;1.75;;
68475;SDS011;55464;48.266;14.188;2023-07-30T06:37:39;1.80;;;1.70;;
68475;SDS011;55464;48.266;14.188;2023-07-30T06:40:05;1.95;;;1.50;;
68475;SDS011;55464;48.266;14.188;2023-07-30T06:42:31;2.83;;;1.50;;
68475;SDS011;55464;48.266;14.188;2023-07-30T06:44:57;1.65;;;1.42;;
68475;SDS011;55464;48.266;14.188;2023-07-30T06:47:22;1.98;;;1.80;;
68475;SDS011;55464;48.266;14.188;2023-07-30T06:49:48;1.65;;;1.40;;
68475;SDS011;55464;48.266;14.188;2023-07-30T06:52:13;1.63;;;1.40;;
68475;SDS011;55464;48.266;14.188;2023-07-30T06:54:38;2.08;;;1.85;;
68475;SDS011;55464;48.266;14.188;2023-07-30T06:57:04;1.70;;;1.60;;
68475;SDS011;55464;48.266;14.188;2023-07-30T06:59:29;4.18;;;1.60;;
68475;SDS011;55464;48.266;14.188;2023-07-30T07:01:55;2.08;;;1.77;;
68475;SDS011;55464;48.266;14.188;2023-07-30T07:04:20;1.55;;;1.42;;
68475;SDS011;55464;48.266;14.188;2023-07-30T07:06:46;1.77;;;1.60;;
68475;SDS011;55464;48.266;14.188;2023-07-30T07:09:11;3.22;;;2.03;;
68475;SDS011;55464;48.266;14.188;2023-07-30T07:11:36;2.05;;;1.95;;
68475;SDS011;55464;48.266;14.188;2023-07-30T07:14:02;3.22;;;1.80;;
68475;SDS011;55464;48.266;14.188;2023-07-30T07:16:28;1.58;;;1.45;;
68475;SDS011;55464;48.266;14.188;2023-07-30T07:18:53;3.75;;;1.80;;
68475;SDS011;55464;48.266;14.188;2023-07-30T07:21:18;3.10;;;1.63;;
68475;SDS011;55464;48.266;14.188;2023-07-30T07:23:45;3.63;;;1.20;;
68475;SDS011;55464;48.266;14.188;2023-07-30T07:26:10;1.60;;;1.17;;
68475;SDS011;55464;48.266;14.188;2023-07-30T07:28:36;1.75;;;1.65;;
68475;SDS011;55464;48.266;14.188;2023-07-30T07:31:01;1.27;;;1.17;;
68475;SDS011;55464;48.266;14.188;2023-07-30T07:33:27;1.48;;;1.05;;
68475;SDS011;55464;48.266;14.188;2023-07-30T07:36:01;2.13;;;1.92;;
68475;SDS011;55464;48.266;14.188;2023-07-30T07:38:31;2.05;;;1.20;;
68475;SDS011;55464;48.266;14.188;2023-07-30T07:40:57;1.27;;;1.13;;
68475;SDS011;55464;48.266;14.188;2023-07-30T07:43:22;1.40;;;1.30;;
68475;SDS011;55464;48.266;14.188;2023-07-30T07:45:48;0.90;;;0.82;;
68475;SDS011;55464;48.266;14.188;2023-07-30T07:48:13;1.20;;;1.10;;
68475;SDS011;55464;48.266;14.188;2023-07-30T07:50:39;1.55;;;1.45;;
68475;SDS011;55464;48.266;14.188;2023-07-30T07:53:04;2.03;;;1.20;;
68475;SDS011;55464;48.266;14.188;2023-07-30T07:55:29;1.52;;;1.42;;
68475;SDS011;55464;48.266;14.188;2023-07-30T07:57:55;1.77;;;1.05;;
68475;SDS011;55464;48.266;14.188;2023-07-30T08:00:20;5.20;;;1.30;;
68475;SDS011;55464;48.266;14.188;2023-07-30T08:02:46;1.27;;;1.17;;
68475;SDS011;55464;48.266;14.188;2023-07-30T08:05:11;1.55;;;1.35;;
68475;SDS011;55464;48.266;14.188;2023-07-30T08:07:36;1.58;;;1.33;;
68475;SDS011;55464;48.266;14.188;2023-07-30T08:10:02;2.90;;;1.13;;
68475;SDS011;55464;48.266;14.188;2023-07-30T08:12:27;1.42;;;1.02;;
68475;SDS011;55464;48.266;14.188;2023-07-30T08:14:53;1.27;;;1.20;;
68475;SDS011;55464;48.266;14.188;2023-07-30T08:17:21;1.15;;;1.05;;
68475;SDS011;55464;48.266;14.188;2023-07-30T08:19:47;0.68;;;0.68;;
68475;SDS011;55464;48.266;14.188;2023-07-30T08:22:12;1.00;;;0.90;;
68475;SDS011;55464;48.266;14.188;2023-07-30T08:24:37;1.50;;;1.40;;
68475;SDS011;55464;48.266;14.188;2023-07-30T08:27:03;2.17;;;1.20;;
68475;SDS011;55464;48.266;14.188;2023-07-30T08:29:28;1.60;;;1.20;;
68475;SDS011;55464;48.266;14.188;2023-07-30T08:31:54;1.35;;;1.25;;
68475;SDS011;55464;48.266;14.188;2023-07-30T08:34:21;2.45;;;1.20;;
68475;SDS011;55464;48.266;14.188;2023-07-30T08:36:47;1.23;;;1.13;;
68475;SDS011;55464;48.266;14.188;2023-07-30T08:39:13;2.08;;;1.00;;
68475;SDS011;55464;48.266;14.188;2023-07-30T08:41:38;1.63;;;1.10;;
68475;SDS011;55464;48.266;14.188;2023-07-30T08:44:04;1.20;;;0.98;;
68475;SDS011;55464;48.266;14.188;2023-07-30T08:46:29;1.25;;;0.95;;
68475;SDS011;55464;48.266;14.188;2023-07-30T08:48:55;2.58;;;1.30;;
68475;SDS011;55464;48.266;14.188;2023-07-30T08:51:22;2.72;;;1.10;;
68475;SDS011;55464;48.266;14.188;2023-07-30T08:53:49;1.02;;;1.00;;
68475;SDS011;55464;48.266;14.188;2023-07-30T08:56:16;1.17;;;1.10;;
68475;SDS011;55464;48.266;14.188;2023-07-30T08:58:42;1.33;;;1.20;;
68475;SDS011;55464;48.266;14.188;2023-07-30T09:01:09;1.17;;;1.08;;
68475;SDS011;55464;48.266;14.188;2023-07-30T09:03:40;1.27;;;1.00;;
68475;SDS011;55464;48.266;14.188;2023-07-30T09:06:06;1.35;;;1.00;;
68475;SDS011;55464;48.266;14.188;2023-07-30T09:08:32;1.08;;;0.98;;
68475;SDS011;55464;48.266;14.188;2023-07-30T09:11:08;0.82;;;0.82;;
68475;SDS011;55464;48.266;14.188;2023-07-30T09:13:38;1.10;;;0.90;;
68475;SDS011;55464;48.266;14.188;2023-07-30T09:16:10;0.80;;;0.80;;
68475;SDS011;55464;48.266;14.188;2023-07-30T09:18:40;1.45;;;1.20;;
68475;SDS011;55464;48.266;14.188;2023-07-30T09:21:07;1.05;;;1.00;;
68475;SDS011;55464;48.266;14.188;2023-07-30T09:23:33;1.00;;;1.00;;
68475;SDS011;55464;48.266;14.188;2023-07-30T09:26:05;2.75;;;1.20;;
68475;SDS011;55464;48.266;14.188;2023-07-30T09:28:30;1.52;;;0.80;;
68475;SDS011;55464;48.266;14.188;2023-07-30T09:31:02;1.40;;;1.30;;
68475;SDS011;55464;48.266;14.188;2023-07-30T09:33:30;1.67;;;1.13;;
68475;SDS011;55464;48.266;14.188;2023-07-30T09:35:56;1.20;;;1.10;;
68475;SDS011;55464;48.266;14.188;2023-07-30T09:38:22;2.30;;;1.20;;
68475;SDS011;55464;48.266;14.188;2023-07-30T09:40:47;0.85;;;0.82;;
68475;SDS011;55464;48.266;14.188;2023-07-30T09:43:14;1.08;;;1.02;;
68475;SDS011;55464;48.266;14.188;2023-07-30T09:45:43;0.93;;;0.90;;
68475;SDS011;55464;48.266;14.188;2023-07-30T09:48:12;1.70;;;1.15;;
68475;SDS011;55464;48.266;14.188;2023-07-30T09:50:37;0.80;;;0.80;;
68475;SDS011;55464;48.266;14.188;2023-07-30T09:53:03;2.13;;;1.40;;
68475;SDS011;55464;48.266;14.188;2023-07-30T09:55:29;2.70;;;1.20;;
68475;SDS011;55464;48.266;14.188;2023-07-30T09:57:55;1.20;;;1.10;;
68475;SDS011;55464;48.266;14.188;2023-07-30T10:00:20;1.55;;;1.20;;
68475;SDS011;55464;48.266;14.188;2023-07-30T10:02:47;1.35;;;1.20;;
68475;SDS011;55464;48.266;14.188;2023-07-30T10:05:14;1.30;;;1.20;;
68475;SDS011;55464;48.266;14.188;2023-07-30T10:08:26;1.10;;;1.00;;
68475;SDS011;55464;48.266;14.188;2023-07-30T10:10:36;1.48;;;1.20;;
68475;SDS011;55464;48.266;14.188;2023-07-30T10:13:03;0.93;;;0.80;;
68475;SDS011;55464;48.266;14.188;2023-07-30T10:15:35;1.27;;;1.17;;
68475;SDS011;55464;48.266;14.188;2023-07-30T10:18:02;1.13;;;1.02;;
68475;SDS011;55464;48.266;14.188;2023-07-30T10:20:28;1.05;;;1.00;;
68475;SDS011;55464;48.266;14.188;2023-07-30T10:22:56;1.40;;;1.30;;
68475;SDS011;55464;48.266;14.188;2023-07-30T10:25:27;1.67;;;1.33;;
68475;SDS011;55464;48.266;14.188;2023-07-30T10:28:07;1.40;;;1.08;;
68475;SDS011;55464;48.266;14.188;2023-07-30T10:30:33;1.30;;;1.20;;
68475;SDS011;55464;48.266;14.188;2023-07-30T10:32:59;1.48;;;1.30;;
68475;SDS011;55464;48.266;14.188;2023-07-30T10:35:45;1.30;;;1.20;;
68475;SDS011;55464;48.266;14.188;2023-07-30T10:41:01;1.95;;;1.80;;
68475;SDS011;55464;48.266;14.188;2023-07-30T10:43:30;3.28;;;1.67;;
68475;SDS011;55464;48.266;14.188;2023-07-30T10:45:59;1.63;;;1.30;;
68475;SDS011;55464;48.266;14.188;2023-07-30T10:48:38;5.03;;;1.55;;
68475;SDS011;55464;48.266;14.188;2023-07-30T10:51:08;1.38;;;1.25;;
68475;SDS011;55464;48.266;14.188;2023-07-30T10:53:35;2.03;;;1.27;;
68475;SDS011;55464;48.266;14.188;2023-07-30T10:56:02;1.33;;;1.23;;
68475;SDS011;55464;48.266;14.188;2023-07-30T10:58:33;1.20;;;1.10;;
68475;SDS011;55464;48.266;14.188;2023-07-30T11:01:03;2.63;;;1.00;;
68475;SDS011;55464;48.266;14.188;2023-07-30T11:03:30;3.97;;;1.25;;
68475;SDS011;55464;48.266;14.188;2023-07-30T11:05:56;1.85;;;1.35;;
68475;SDS011;55464;48.266;14.188;2023-07-30T11:08:38;1.02;;;1.02;;
68475;SDS011;55464;48.266;14.188;2023-07-30T11:11:06;1.40;;;1.30;;
68475;SDS011;55464;48.266;14.188;2023-07-30T11:13:44;1.48;;;1.38;;
68475;SDS011;55464;48.266;14.188;2023-07-30T11:16:11;1.75;;;1.38;;
68475;SDS011;55464;48.266;14.188;2023-07-30T11:18:37;2.08;;;1.23;;
68475;SDS011;55464;48.266;14.188;2023-07-30T11:21:05;1.50;;;1.40;;
68475;SDS011;55464;48.266;14.188;2023-07-30T11:23:32;4.25;;;1.20;;
68475;SDS011;55464;48.266;14.188;2023-07-30T11:25:59;1.45;;;1.23;;
68475;SDS011;55464;48.266;14.188;2023-07-30T11:28:33;1.40;;;1.30;;
68475;SDS011;55464;48.266;14.188;2023-07-30T11:33:42;1.38;;;1.27;;
68475;SDS011;55464;48.266;14.188;2023-07-30T11:36:13;1.17;;;1.08;;
68475;SDS011;55464;48.266;14.188;2023-07-30T11:38:41;1.23;;;1.10;;
68475;SDS011;55464;48.266;14.188;2023-07-30T11:41:08;1.30;;;1.20;;
68475;SDS011;55464;48.266;14.188;2023-07-30T11:43:38;1.27;;;1.17;;
68475;SDS011;55464;48.266;14.188;2023-07-30T11:48:34;1.55;;;1.10;;
68475;SDS011;55464;48.266;14.188;2023-07-30T11:51:00;1.20;;;1.10;;
68475;SDS011;55464;48.266;14.188;2023-07-30T11:56:26;1.20;;;1.10;;
68475;SDS011;55464;48.266;14.188;2023-07-30T11:58:57;2.25;;;1.15;;
68475;SDS011;55464;48.266;14.188;2023-07-30T12:01:29;1.58;;;1.45;;
68475;SDS011;55464;48.266;14.188;2023-07-30T12:03:55;1.30;;;1.20;;
68475;SDS011;55464;48.266;14.188;2023-07-30T12:09:14;1.50;;;1.40;;
68475;SDS011;55464;48.266;14.188;2023-07-30T12:12:00;0.80;;;0.80;;
68475;SDS011;55464;48.266;14.188;2023-07-30T12:14:27;0.90;;;0.90;;
68475;SDS011;55464;48.266;14.188;2023-07-30T12:16:58;1.00;;;0.95;;
68475;SDS011;55464;48.266;14.188;2023-07-30T12:19:24;1.05;;;1.02;;
68475;SDS011;55464;48.266;14.188;2023-07-30T12:21:50;1.40;;;1.30;;
68475;SDS011;55464;48.266;14.188;2023-07-30T12:24:15;1.42;;;1.13;;
68475;SDS011;55464;48.266;14.188;2023-07-30T12:26:41;1.70;;;1.25;;
68475;SDS011;55464;48.266;14.188;2023-07-30T12:29:06;3.60;;;1.20;;
68475;SDS011;55464;48.266;14.188;2023-07-30T12:31:32;1.13;;;1.02;;
68475;SDS011;55464;48.266;14.188;2023-07-30T12:33:57;1.10;;;1.00;;
68475;SDS011;55464;48.266;14.188;2023-07-30T12:36:23;1.20;;;1.10;;
68475;SDS011;55464;48.266;14.188;2023-07-30T12:38:48;2.05;;;1.10;;
68475;SDS011;55464;48.266;14.188;2023-07-30T12:41:13;1.08;;;1.00;;
68475;SDS011;55464;48.266;14.188;2023-07-30T12:43:39;1.10;;;1.00;;
68475;SDS011;55464;48.266;14.188;2023-07-30T12:46:04;1.02;;;0.95;;
68475;SDS011;55464;48.266;14.188;2023-07-30T12:48:30;1.15;;;1.10;;
68475;SDS011;55464;48.266;14.188;2023-07-30T12:50:55;1.48;;;1.38;;
68475;SDS011;55464;48.266;14.188;2023-07-30T12:53:20;1.10;;;0.95;;
68475;SDS011;55464;48.266;14.188;2023-07-30T12:55:46;1.10;;;1.10;;
68475;SDS011;55464;48.266;14.188;2023-07-30T12:58:11;1.50;;;1.30;;
68475;SDS011;55464;48.266;14.188;2023-07-30T13:00:37;2.83;;;1.35;;
68475;SDS011;55464;48.266;14.188;2023-07-30T13:03:02;1.10;;;1.00;;
68475;SDS011;55464;48.266;14.188;2023-07-30T13:05:28;2.10;;;1.40;;
68475;SDS011;55464;48.266;14.188;2023-07-30T13:07:53;1.63;;;1.52;;
68475;SDS011;55464;48.266;14.188;2023-07-30T13:10:19;2.65;;;1.77;;
68475;SDS011;55464;48.266;14.188;2023-07-30T13:12:44;2.97;;;1.58;;
68475;SDS011;55464;48.266;14.188;2023-07-30T13:15:09;2.70;;;1.50;;
68475;SDS011;55464;48.266;14.188;2023-07-30T13:17:37;1.58;;;1.48;;
68475;SDS011;55464;48.266;14.188;2023-07-30T13:20:03;1.80;;;1.70;;
68475;SDS011;55464;48.266;14.188;2023-07-30T13:22:29;2.33;;;1.85;;
68475;SDS011;55464;48.266;14.188;2023-07-30T13:24:54;1.25;;;1.15;;
68475;SDS011;55464;48.266;14.188;2023-07-30T13:27:20;3.88;;;1.58;;
68475;SDS011;55464;48.266;14.188;2023-07-30T13:29:45;3.05;;;1.50;;
68475;SDS011;55464;48.266;14.188;2023-07-30T13:32:13;3.45;;;1.70;;
68475;SDS011;55464;48.266;14.188;2023-07-30T13:34:38;5.47;;;1.98;;
68475;SDS011;55464;48.266;14.188;2023-07-30T13:37:04;10.68;;;2.38;;
68475;SDS011;55464;48.266;14.188;2023-07-30T13:39:29;13.20;;;4.10;;
68475;SDS011;55464;48.266;14.188;2023-07-30T13:41:55;3.72;;;1.33;;
68475;SDS011;55464;48.266;14.188;2023-07-30T13:44:20;5.45;;;1.70;;
68475;SDS011;55464;48.266;14.188;2023-07-30T13:46:46;5.43;;;1.48;;
68475;SDS011;55464;48.266;14.188;2023-07-30T13:49:11;4.30;;;3.90;;
68475;SDS011;55464;48.266;14.188;2023-07-30T13:51:37;3.65;;;3.35;;
68475;SDS011;55464;48.266;14.188;2023-07-30T13:54:02;3.33;;;2.08;;
68475;SDS011;55464;48.266;14.188;2023-07-30T13:56:28;1.60;;;1.17;;
68475;SDS011;55464;48.266;14.188;2023-07-30T13:58:54;3.40;;;1.10;;
68475;SDS011;55464;48.266;14.188;2023-07-30T14:01:20;1.35;;;1.20;;
68475;SDS011;55464;48.266;14.188;2023-07-30T14:03:45;1.73;;;1.63;;
68475;SDS011;55464;48.266;14.188;2023-07-30T14:06:11;3.55;;;1.33;;
68475;SDS011;55464;48.266;14.188;2023-07-30T14:08:37;2.08;;;1.40;;
68475;SDS011;55464;48.266;14.188;2023-07-30T14:11:03;2.25;;;1.00;;
68475;SDS011;55464;48.266;14.188;2023-07-30T14:13:28;1.30;;;1.17;;
68475;SDS011;55464;48.266;14.188;2023-07-30T14:15:54;1.75;;;1.40;;
68475;SDS011;55464;48.266;14.188;2023-07-30T14:18:19;1.50;;;1.30;;
68475;SDS011;55464;48.266;14.188;2023-07-30T14:20:45;1.52;;;1.10;;
68475;SDS011;55464;48.266;14.188;2023-07-30T14:23:10;1.35;;;1.23;;
68475;SDS011;55464;48.266;14.188;2023-07-30T14:25:36;0.98;;;0.93;;
68475;SDS011;55464;48.266;14.188;2023-07-30T14:28:02;1.27;;;1.10;;
68475;SDS011;55464;48.266;14.188;2023-07-30T14:30:27;1.63;;;1.40;;
68475;SDS011;55464;48.266;14.188;2023-07-30T14:32:53;1.65;;;1.35;;
68475;SDS011;55464;48.266;14.188;2023-07-30T14:35:18;2.00;;;1.50;;
68475;SDS011;55464;48.266;14.188;2023-07-30T14:37:44;2.88;;;1.52;;
68475;SDS011;55464;48.266;14.188;2023-07-30T14:40:09;1.45;;;1.35;;
68475;SDS011;55464;48.266;14.188;2023-07-30T14:42:35;1.65;;;1.20;;